sensor_id;sensor_type;location;lat;lon;timestamp;P1;durP1;ratioP1;P2;durP2;ratioP2
5121;SDS011;2563;52.242;7.956;2023-09-08T00:02:01;13.47;;;8.00;;
5121;SDS011;2563;52.242;7.956;2023-09-08T00:04:26;13.70;;;7.40;;
5121;SDS011;2563;52.242;7.956;2023-09-08T00:06:51;14.17;;;8.27;;
5121;SDS011;2563;52.242;7.956;2023-09-08T00:09:17;12.37;;;7.50;;
5121;SDS011;2563;52.242;7.956;2023-09-08T00:11:42;11.70;;;7.57;;
5121;SDS011;2563;52.242;7.956;2023-09-08T00:14:07;13.10;;;7.67;;
5121;SDS011;2563;52.242;7.956;2023-09-08T00:16:33;13.33;;;7.30;;
5121;SDS011;2563;52.242;7.956;2023-09-08T00:18:58;10.70;;;7.30;;
5121;SDS011;2563;52.242;7.956;2023-09-08T00:21:27;19.60;;;7.33;;
5121;SDS011;2563;52.242;7.956;2023-09-08T00:23:52;11.83;;;7.50;;
5121;SDS011;2563;52.242;7.956;2023-09-08T00:26:18;14.43;;;7.23;;
5121;SDS011;2563;52.242;7.956;2023-09-08T00:28:44;11.40;;;6.47;;
5121;SDS011;2563;52.242;7.956;2023-09-08T00:31:09;15.70;;;7.57;;
5121;SDS011;2563;52.242;7.956;2023-09-08T00:33:35;14.37;;;7.70;;
5121;SDS011;2563;52.242;7.956;2023-09-08T00:36:00;14.47;;;8.23;;
5121;SDS011;2563;52.242;7.956;2023-09-08T00:38:25;16.20;;;7.20;;
5121;SDS011;2563;52.242;7.956;2023-09-08T00:40:51;12.70;;;7.13;;
5121;SDS011;2563;52.242;7.956;2023-09-08T00:43:17;12.60;;;7.27;;
5121;SDS011;2563;52.242;7.956;2023-09-08T00:45:43;13.73;;;7.20;;
5121;SDS011;2563;52.242;7.956;2023-09-08T00:48:10;13.17;;;7.20;;
5121;SDS011;2563;52.242;7.956;2023-09-08T00:50:36;12.37;;;7.53;;
5121;SDS011;2563;52.242;7.956;2023-09-08T00:53:06;15.93;;;7.40;;
5121;SDS011;2563;52.242;7.956;2023-09-08T00:55:32;12.97;;;7.00;;
5121;SDS011;2563;52.242;7.956;2023-09-08T00:57:58;12.63;;;7.10;;
5121;SDS011;2563;52.242;7.956;2023-09-08T01:00:25;11.00;;;6.50;;
5121;SDS011;2563;52.242;7.956;2023-09-08T01:02:50;12.20;;;7.50;;
5121;SDS011;2563;52.242;7.956;2023-09-08T01:05:16;11.20;;;6.20;;
5121;SDS011;2563;52.242;7.956;2023-09-08T01:07:41;11.07;;;7.53;;
5121;SDS011;2563;52.242;7.956;2023-09-08T01:10:07;11.20;;;6.50;;
5121;SDS011;2563;52.242;7.956;2023-09-08T01:12:34;13.70;;;6.67;;
5121;SDS011;2563;52.242;7.956;2023-09-08T01:15:03;12.00;;;6.70;;
5121;SDS011;2563;52.242;7.956;2023-09-08T01:17:32;13.67;;;6.83;;
5121;SDS011;2563;52.242;7.956;2023-09-08T01:20:04;11.17;;;6.20;;
5121;SDS011;2563;52.242;7.956;2023-09-08T01:25:28;16.47;;;7.23;;
5121;SDS011;2563;52.242;7.956;2023-09-08T01:27:55;13.57;;;7.43;;
5121;SDS011;2563;52.242;7.956;2023-09-08T01:30:24;15.20;;;7.87;;
5121;SDS011;2563;52.242;7.956;2023-09-08T01:32:52;14.23;;;6.70;;
5121;SDS011;2563;52.242;7.956;2023-09-08T01:35:18;11.60;;;7.20;;
5121;SDS011;2563;52.242;7.956;2023-09-08T01:37:44;13.67;;;7.17;;
5121;SDS011;2563;52.242;7.956;2023-09-08T01:40:11;10.37;;;6.90;;
5121;SDS011;2563;52.242;7.956;2023-09-08T01:42:37;13.33;;;7.80;;
5121;SDS011;2563;52.242;7.956;2023-09-08T01:45:04;12.93;;;6.57;;
5121;SDS011;2563;52.242;7.956;2023-09-08T01:47:30;11.30;;;6.97;;
5121;SDS011;2563;52.242;7.956;2023-09-08T01:49:56;12.50;;;7.90;;
5121;SDS011;2563;52.242;7.956;2023-09-08T01:52:21;10.73;;;6.70;;
5121;SDS011;2563;52.242;7.956;2023-09-08T01:54:47;11.00;;;6.50;;
5121;SDS011;2563;52.242;7.956;2023-09-08T01:57:12;11.17;;;6.67;;
5121;SDS011;2563;52.242;7.956;2023-09-08T01:59:38;11.63;;;6.60;;
5121;SDS011;2563;52.242;7.956;2023-09-08T02:02:03;12.83;;;6.93;;
5121;SDS011;2563;52.242;7.956;2023-09-08T02:04:29;11.87;;;6.93;;
5121;SDS011;2563;52.242;7.956;2023-09-08T02:06:54;12.23;;;7.60;;
5121;SDS011;2563;52.242;7.956;2023-09-08T02:09:19;10.70;;;6.40;;
5121;SDS011;2563;52.242;7.956;2023-09-08T02:11:45;11.60;;;6.60;;
5121;SDS011;2563;52.242;7.956;2023-09-08T02:14:10;16.00;;;6.83;;
5121;SDS011;2563;52.242;7.956;2023-09-08T02:16:36;11.33;;;6.83;;
5121;SDS011;2563;52.242;7.956;2023-09-08T02:19:01;11.73;;;7.03;;
5121;SDS011;2563;52.242;7.956;2023-09-08T02:21:26;17.33;;;7.63;;
5121;SDS011;2563;52.242;7.956;2023-09-08T02:23:52;10.80;;;6.70;;
5121;SDS011;2563;52.242;7.956;2023-09-08T02:26:17;11.90;;;6.83;;
5121;SDS011;2563;52.242;7.956;2023-09-08T02:28:42;11.33;;;6.17;;
5121;SDS011;2563;52.242;7.956;2023-09-08T02:31:08;16.30;;;7.70;;
5121;SDS011;2563;52.242;7.956;2023-09-08T02:33:33;11.30;;;6.70;;
5121;SDS011;2563;52.242;7.956;2023-09-08T02:36:05;12.20;;;7.13;;
5121;SDS011;2563;52.242;7.956;2023-09-08T02:38:31;15.10;;;7.03;;
5121;SDS011;2563;52.242;7.956;2023-09-08T02:40:57;13.53;;;7.80;;
5121;SDS011;2563;52.242;7.956;2023-09-08T02:43:22;10.43;;;6.70;;
5121;SDS011;2563;52.242;7.956;2023-09-08T02:45:47;13.17;;;7.87;;
5121;SDS011;2563;52.242;7.956;2023-09-08T02:48:13;13.10;;;7.43;;
5121;SDS011;2563;52.242;7.956;2023-09-08T02:50:38;12.33;;;7.30;;
5121;SDS011;2563;52.242;7.956;2023-09-08T02:53:03;12.20;;;7.20;;
5121;SDS011;2563;52.242;7.956;2023-09-08T02:55:30;12.57;;;7.67;;
5121;SDS011;2563;52.242;7.956;2023-09-08T02:57:55;16.33;;;7.27;;
5121;SDS011;2563;52.242;7.956;2023-09-08T03:00:21;13.10;;;7.50;;
5121;SDS011;2563;52.242;7.956;2023-09-08T03:02:46;11.27;;;7.03;;
5121;SDS011;2563;52.242;7.956;2023-09-08T03:05:12;13.60;;;7.10;;
5121;SDS011;2563;52.242;7.956;2023-09-08T03:07:37;18.83;;;7.03;;
5121;SDS011;2563;52.242;7.956;2023-09-08T03:10:04;12.97;;;7.27;;
5121;SDS011;2563;52.242;7.956;2023-09-08T03:12:30;11.40;;;6.50;;
5121;SDS011;2563;52.242;7.956;2023-09-08T03:14:55;14.93;;;7.53;;
5121;SDS011;2563;52.242;7.956;2023-09-08T03:17:21;11.33;;;6.50;;
5121;SDS011;2563;52.242;7.956;2023-09-08T03:19:46;15.00;;;6.37;;
5121;SDS011;2563;52.242;7.956;2023-09-08T03:22:11;13.37;;;6.80;;
5121;SDS011;2563;52.242;7.956;2023-09-08T03:24:37;14.30;;;6.73;;
5121;SDS011;2563;52.242;7.956;2023-09-08T03:27:02;11.03;;;6.43;;
5121;SDS011;2563;52.242;7.956;2023-09-08T03:29:28;14.00;;;7.37;;
5121;SDS011;2563;52.242;7.956;2023-09-08T03:31:53;13.97;;;8.37;;
5121;SDS011;2563;52.242;7.956;2023-09-08T03:34:18;14.63;;;7.50;;
5121;SDS011;2563;52.242;7.956;2023-09-08T03:36:45;11.87;;;7.47;;
5121;SDS011;2563;52.242;7.956;2023-09-08T03:39:11;12.20;;;7.00;;
5121;SDS011;2563;52.242;7.956;2023-09-08T03:41:36;11.73;;;7.00;;
5121;SDS011;2563;52.242;7.956;2023-09-08T03:44:02;13.50;;;7.50;;
5121;SDS011;2563;52.242;7.956;2023-09-08T03:46:27;14.53;;;7.80;;
5121;SDS011;2563;52.242;7.956;2023-09-08T03:48:52;13.63;;;7.47;;
5121;SDS011;2563;52.242;7.956;2023-09-08T03:51:23;12.13;;;7.47;;
5121;SDS011;2563;52.242;7.956;2023-09-08T03:53:49;16.03;;;8.07;;
5121;SDS011;2563;52.242;7.956;2023-09-08T03:56:14;19.73;;;8.30;;
5121;SDS011;2563;52.242;7.956;2023-09-08T03:58:40;13.57;;;7.50;;
5121;SDS011;2563;52.242;7.956;2023-09-08T04:01:05;14.80;;;8.10;;
5121;SDS011;2563;52.242;7.956;2023-09-08T04:03:30;13.83;;;7.27;;
5121;SDS011;2563;52.242;7.956;2023-09-08T04:05:56;13.20;;;7.77;;
5121;SDS011;2563;52.242;7.956;2023-09-08T04:08:21;13.87;;;7.67;;
5121;SDS011;2563;52.242;7.956;2023-09-08T04:10:46;14.13;;;6.87;;
5121;SDS011;2563;52.242;7.956;2023-09-08T04:13:12;16.30;;;7.50;;
5121;SDS011;2563;52.242;7.956;2023-09-08T04:15:37;20.23;;;9.20;;
5121;SDS011;2563;52.242;7.956;2023-09-08T04:18:03;19.13;;;7.40;;
5121;SDS011;2563;52.242;7.956;2023-09-08T04:20:28;18.63;;;7.00;;
5121;SDS011;2563;52.242;7.956;2023-09-08T04:22:53;14.67;;;7.73;;
5121;SDS011;2563;52.242;7.956;2023-09-08T04:25:19;13.50;;;7.57;;
5121;SDS011;2563;52.242;7.956;2023-09-08T04:27:44;17.93;;;8.07;;
5121;SDS011;2563;52.242;7.956;2023-09-08T04:30:10;14.37;;;7.47;;
5121;SDS011;2563;52.242;7.956;2023-09-08T04:32:35;16.90;;;7.97;;
5121;SDS011;2563;52.242;7.956;2023-09-08T04:35:02;13.60;;;7.63;;
5121;SDS011;2563;52.242;7.956;2023-09-08T04:37:28;17.30;;;8.80;;
5121;SDS011;2563;52.242;7.956;2023-09-08T04:39:55;17.23;;;8.00;;
5121;SDS011;2563;52.242;7.956;2023-09-08T04:42:20;17.63;;;8.10;;
5121;SDS011;2563;52.242;7.956;2023-09-08T04:44:46;15.63;;;8.00;;
5121;SDS011;2563;52.242;7.956;2023-09-08T04:47:11;21.03;;;9.40;;
5121;SDS011;2563;52.242;7.956;2023-09-08T04:49:37;29.00;;;13.23;;
5121;SDS011;2563;52.242;7.956;2023-09-08T04:52:02;29.93;;;14.10;;
5121;SDS011;2563;52.242;7.956;2023-09-08T04:54:28;34.97;;;15.20;;
5121;SDS011;2563;52.242;7.956;2023-09-08T04:56:53;37.30;;;14.97;;
5121;SDS011;2563;52.242;7.956;2023-09-08T04:59:19;38.67;;;15.03;;
5121;SDS011;2563;52.242;7.956;2023-09-08T05:01:45;29.03;;;12.93;;
5121;SDS011;2563;52.242;7.956;2023-09-08T05:04:11;24.40;;;10.70;;
5121;SDS011;2563;52.242;7.956;2023-09-08T05:06:36;22.33;;;11.13;;
5121;SDS011;2563;52.242;7.956;2023-09-08T05:09:02;23.50;;;9.73;;
5121;SDS011;2563;52.242;7.956;2023-09-08T05:11:27;19.90;;;10.40;;
5121;SDS011;2563;52.242;7.956;2023-09-08T05:13:53;20.90;;;10.70;;
5121;SDS011;2563;52.242;7.956;2023-09-08T05:16:18;22.10;;;11.10;;
5121;SDS011;2563;52.242;7.956;2023-09-08T05:18:50;24.30;;;10.03;;
5121;SDS011;2563;52.242;7.956;2023-09-08T05:21:16;21.47;;;10.50;;
5121;SDS011;2563;52.242;7.956;2023-09-08T05:23:41;39.40;;;10.73;;
5121;SDS011;2563;52.242;7.956;2023-09-08T05:26:07;26.77;;;9.73;;
5121;SDS011;2563;52.242;7.956;2023-09-08T05:28:32;24.03;;;10.70;;
5121;SDS011;2563;52.242;7.956;2023-09-08T05:30:57;28.40;;;13.03;;
5121;SDS011;2563;52.242;7.956;2023-09-08T05:33:23;27.27;;;12.03;;
5121;SDS011;2563;52.242;7.956;2023-09-08T05:35:48;23.17;;;10.63;;
5121;SDS011;2563;52.242;7.956;2023-09-08T05:38:13;23.60;;;11.90;;
5121;SDS011;2563;52.242;7.956;2023-09-08T05:40:39;26.27;;;12.90;;
5121;SDS011;2563;52.242;7.956;2023-09-08T05:43:05;26.90;;;14.00;;
5121;SDS011;2563;52.242;7.956;2023-09-08T05:45:31;39.43;;;16.53;;
5121;SDS011;2563;52.242;7.956;2023-09-08T05:47:57;43.13;;;17.97;;
5121;SDS011;2563;52.242;7.956;2023-09-08T05:50:22;36.60;;;17.37;;
5121;SDS011;2563;52.242;7.956;2023-09-08T05:52:48;37.93;;;17.20;;
5121;SDS011;2563;52.242;7.956;2023-09-08T05:55:13;33.77;;;16.03;;
5121;SDS011;2563;52.242;7.956;2023-09-08T05:57:38;28.80;;;13.17;;
5121;SDS011;2563;52.242;7.956;2023-09-08T06:00:04;26.73;;;11.80;;
5121;SDS011;2563;52.242;7.956;2023-09-08T06:02:30;21.80;;;11.03;;
5121;SDS011;2563;52.242;7.956;2023-09-08T06:04:55;23.23;;;11.10;;
5121;SDS011;2563;52.242;7.956;2023-09-08T06:07:22;24.07;;;11.33;;
5121;SDS011;2563;52.242;7.956;2023-09-08T06:09:48;24.83;;;10.77;;
5121;SDS011;2563;52.242;7.956;2023-09-08T06:12:13;29.30;;;11.33;;
5121;SDS011;2563;52.242;7.956;2023-09-08T06:14:38;32.40;;;11.53;;
5121;SDS011;2563;52.242;7.956;2023-09-08T06:17:04;26.33;;;10.77;;
5121;SDS011;2563;52.242;7.956;2023-09-08T06:19:29;22.53;;;10.30;;
5121;SDS011;2563;52.242;7.956;2023-09-08T06:21:54;24.57;;;11.33;;
5121;SDS011;2563;52.242;7.956;2023-09-08T06:24:20;20.67;;;10.57;;
5121;SDS011;2563;52.242;7.956;2023-09-08T06:26:45;29.63;;;12.70;;
5121;SDS011;2563;52.242;7.956;2023-09-08T06:29:11;38.23;;;16.63;;
5121;SDS011;2563;52.242;7.956;2023-09-08T06:31:36;41.10;;;16.40;;
5121;SDS011;2563;52.242;7.956;2023-09-08T06:34:01;26.47;;;11.80;;
5121;SDS011;2563;52.242;7.956;2023-09-08T06:36:27;26.57;;;11.63;;
5121;SDS011;2563;52.242;7.956;2023-09-08T06:38:52;32.50;;;12.93;;
5121;SDS011;2563;52.242;7.956;2023-09-08T06:41:17;30.70;;;11.67;;
5121;SDS011;2563;52.242;7.956;2023-09-08T06:43:43;28.43;;;10.63;;
5121;SDS011;2563;52.242;7.956;2023-09-08T06:46:09;23.40;;;9.40;;
5121;SDS011;2563;52.242;7.956;2023-09-08T06:48:34;17.83;;;9.57;;
5121;SDS011;2563;52.242;7.956;2023-09-08T06:51:00;17.80;;;9.60;;
5121;SDS011;2563;52.242;7.956;2023-09-08T06:53:25;16.30;;;9.20;;
5121;SDS011;2563;52.242;7.956;2023-09-08T06:55:51;16.57;;;8.73;;
5121;SDS011;2563;52.242;7.956;2023-09-08T06:58:16;16.60;;;9.33;;
5121;SDS011;2563;52.242;7.956;2023-09-08T07:00:41;16.77;;;8.10;;
5121;SDS011;2563;52.242;7.956;2023-09-08T07:03:07;17.97;;;9.57;;
5121;SDS011;2563;52.242;7.956;2023-09-08T07:05:33;20.70;;;9.17;;
5121;SDS011;2563;52.242;7.956;2023-09-08T07:07:59;14.97;;;8.10;;
5121;SDS011;2563;52.242;7.956;2023-09-08T07:10:25;19.10;;;9.30;;
5121;SDS011;2563;52.242;7.956;2023-09-08T07:12:50;24.87;;;8.33;;
5121;SDS011;2563;52.242;7.956;2023-09-08T07:15:15;16.33;;;8.77;;
5121;SDS011;2563;52.242;7.956;2023-09-08T07:17:41;22.70;;;9.50;;
5121;SDS011;2563;52.242;7.956;2023-09-08T07:20:07;16.17;;;8.83;;
5121;SDS011;2563;52.242;7.956;2023-09-08T07:22:33;17.80;;;9.30;;
5121;SDS011;2563;52.242;7.956;2023-09-08T07:24:58;20.67;;;10.50;;
5121;SDS011;2563;52.242;7.956;2023-09-08T07:27:23;29.00;;;12.33;;
5121;SDS011;2563;52.242;7.956;2023-09-08T07:29:49;22.90;;;9.80;;
5121;SDS011;2563;52.242;7.956;2023-09-08T07:32:15;19.30;;;11.07;;
5121;SDS011;2563;52.242;7.956;2023-09-08T07:34:40;22.10;;;10.10;;
5121;SDS011;2563;52.242;7.956;2023-09-08T07:37:06;15.80;;;9.43;;
5121;SDS011;2563;52.242;7.956;2023-09-08T07:39:31;19.80;;;8.70;;
5121;SDS011;2563;52.242;7.956;2023-09-08T07:41:57;15.70;;;8.40;;
5121;SDS011;2563;52.242;7.956;2023-09-08T07:44:24;20.33;;;8.70;;
5121;SDS011;2563;52.242;7.956;2023-09-08T07:46:49;14.07;;;7.77;;
5121;SDS011;2563;52.242;7.956;2023-09-08T07:49:16;20.00;;;8.30;;
5121;SDS011;2563;52.242;7.956;2023-09-08T07:51:44;20.40;;;8.37;;
5121;SDS011;2563;52.242;7.956;2023-09-08T07:54:10;17.70;;;7.73;;
5121;SDS011;2563;52.242;7.956;2023-09-08T07:56:35;17.17;;;8.80;;
5121;SDS011;2563;52.242;7.956;2023-09-08T07:59:00;16.73;;;8.03;;
5121;SDS011;2563;52.242;7.956;2023-09-08T08:01:26;12.70;;;7.53;;
5121;SDS011;2563;52.242;7.956;2023-09-08T08:03:51;17.67;;;7.20;;
5121;SDS011;2563;52.242;7.956;2023-09-08T08:06:16;12.27;;;6.97;;
5121;SDS011;2563;52.242;7.956;2023-09-08T08:08:42;15.30;;;7.50;;
5121;SDS011;2563;52.242;7.956;2023-09-08T08:11:11;14.73;;;6.80;;
5121;SDS011;2563;52.242;7.956;2023-09-08T08:13:38;19.47;;;7.63;;
5121;SDS011;2563;52.242;7.956;2023-09-08T08:16:03;13.90;;;7.57;;
5121;SDS011;2563;52.242;7.956;2023-09-08T08:18:29;11.90;;;7.43;;
5121;SDS011;2563;52.242;7.956;2023-09-08T08:20:54;13.83;;;7.20;;
5121;SDS011;2563;52.242;7.956;2023-09-08T08:23:19;23.10;;;7.47;;
5121;SDS011;2563;52.242;7.956;2023-09-08T08:25:45;15.13;;;7.07;;
5121;SDS011;2563;52.242;7.956;2023-09-08T08:28:10;11.77;;;6.67;;
5121;SDS011;2563;52.242;7.956;2023-09-08T08:30:35;13.07;;;7.30;;
5121;SDS011;2563;52.242;7.956;2023-09-08T08:33:01;11.43;;;6.60;;
5121;SDS011;2563;52.242;7.956;2023-09-08T08:35:27;12.40;;;7.40;;
5121;SDS011;2563;52.242;7.956;2023-09-08T08:37:52;11.00;;;6.60;;
5121;SDS011;2563;52.242;7.956;2023-09-08T08:40:18;11.37;;;7.13;;
5121;SDS011;2563;52.242;7.956;2023-09-08T08:42:44;10.70;;;6.23;;
5121;SDS011;2563;52.242;7.956;2023-09-08T08:45:10;9.13;;;5.80;;
5121;SDS011;2563;52.242;7.956;2023-09-08T08:47:36;9.43;;;5.53;;
5121;SDS011;2563;52.242;7.956;2023-09-08T08:50:02;12.20;;;6.10;;
5121;SDS011;2563;52.242;7.956;2023-09-08T08:52:29;9.63;;;5.90;;
5121;SDS011;2563;52.242;7.956;2023-09-08T08:54:55;9.37;;;6.33;;
5121;SDS011;2563;52.242;7.956;2023-09-08T08:57:23;8.67;;;5.00;;
5121;SDS011;2563;52.242;7.956;2023-09-08T08:59:52;9.33;;;5.93;;
5121;SDS011;2563;52.242;7.956;2023-09-08T09:02:18;7.93;;;5.53;;
5121;SDS011;2563;52.242;7.956;2023-09-08T09:04:44;11.90;;;6.23;;
5121;SDS011;2563;52.242;7.956;2023-09-08T09:07:10;8.57;;;6.20;;
5121;SDS011;2563;52.242;7.956;2023-09-08T09:09:36;7.53;;;5.67;;
5121;SDS011;2563;52.242;7.956;2023-09-08T09:12:02;8.80;;;5.97;;
5121;SDS011;2563;52.242;7.956;2023-09-08T09:14:28;11.63;;;6.13;;
5121;SDS011;2563;52.242;7.956;2023-09-08T09:16:58;8.63;;;5.50;;
5121;SDS011;2563;52.242;7.956;2023-09-08T09:19:23;8.23;;;5.27;;
5121;SDS011;2563;52.242;7.956;2023-09-08T09:21:56;9.40;;;4.93;;
5121;SDS011;2563;52.242;7.956;2023-09-08T09:24:33;10.73;;;6.07;;
5121;SDS011;2563;52.242;7.956;2023-09-08T09:27:05;7.83;;;4.90;;
5121;SDS011;2563;52.242;7.956;2023-09-08T09:29:32;5.30;;;4.20;;
5121;SDS011;2563;52.242;7.956;2023-09-08T09:32:05;7.33;;;4.60;;
5121;SDS011;2563;52.242;7.956;2023-09-08T09:34:31;7.30;;;5.03;;
5121;SDS011;2563;52.242;7.956;2023-09-08T09:36:57;7.50;;;5.40;;
5121;SDS011;2563;52.242;7.956;2023-09-08T09:39:23;9.20;;;4.80;;
5121;SDS011;2563;52.242;7.956;2023-09-08T09:41:52;5.40;;;4.50;;
5121;SDS011;2563;52.242;7.956;2023-09-08T09:44:22;8.07;;;4.83;;
5121;SDS011;2563;52.242;7.956;2023-09-08T09:46:50;6.77;;;4.67;;
5121;SDS011;2563;52.242;7.956;2023-09-08T09:49:17;7.50;;;5.33;;
5121;SDS011;2563;52.242;7.956;2023-09-08T09:51:43;16.10;;;5.07;;
5121;SDS011;2563;52.242;7.956;2023-09-08T09:54:09;5.90;;;4.90;;
5121;SDS011;2563;52.242;7.956;2023-09-08T09:56:37;7.53;;;4.50;;
5121;SDS011;2563;52.242;7.956;2023-09-08T09:59:03;5.30;;;4.70;;
5121;SDS011;2563;52.242;7.956;2023-09-08T10:01:29;6.47;;;4.97;;
5121;SDS011;2563;52.242;7.956;2023-09-08T10:03:56;5.07;;;4.37;;
5121;SDS011;2563;52.242;7.956;2023-09-08T10:06:22;7.13;;;4.70;;
5121;SDS011;2563;52.242;7.956;2023-09-08T10:08:48;7.47;;;4.97;;
5121;SDS011;2563;52.242;7.956;2023-09-08T10:11:16;5.83;;;5.00;;
5121;SDS011;2563;52.242;7.956;2023-09-08T10:13:46;7.03;;;4.40;;
5121;SDS011;2563;52.242;7.956;2023-09-08T10:16:15;6.00;;;4.60;;
5121;SDS011;2563;52.242;7.956;2023-09-08T10:18:44;12.60;;;4.67;;
5121;SDS011;2563;52.242;7.956;2023-09-08T10:21:12;6.13;;;4.80;;
5121;SDS011;2563;52.242;7.956;2023-09-08T10:23:41;5.70;;;4.90;;
5121;SDS011;2563;52.242;7.956;2023-09-08T10:26:10;6.67;;;4.50;;
5121;SDS011;2563;52.242;7.956;2023-09-08T10:28:37;9.00;;;4.43;;
5121;SDS011;2563;52.242;7.956;2023-09-08T10:31:04;6.73;;;4.50;;
5121;SDS011;2563;52.242;7.956;2023-09-08T10:33:31;6.88;;;4.50;;
5121;SDS011;2563;52.242;7.956;2023-09-08T10:35:58;6.85;;;4.80;;
5121;SDS011;2563;52.242;7.956;2023-09-08T10:38:28;5.13;;;4.33;;
5121;SDS011;2563;52.242;7.956;2023-09-08T10:43:40;4.43;;;4.03;;
5121;SDS011;2563;52.242;7.956;2023-09-08T10:46:10;10.75;;;4.60;;
5121;SDS011;2563;52.242;7.956;2023-09-08T10:48:45;5.40;;;4.53;;
5121;SDS011;2563;52.242;7.956;2023-09-08T10:51:14;5.57;;;4.78;;
5121;SDS011;2563;52.242;7.956;2023-09-08T10:53:41;8.75;;;4.82;;
5121;SDS011;2563;52.242;7.956;2023-09-08T10:56:06;7.70;;;4.57;;
5121;SDS011;2563;52.242;7.956;2023-09-08T10:58:32;6.15;;;4.53;;
5121;SDS011;2563;52.242;7.956;2023-09-08T11:01:01;7.03;;;4.28;;
5121;SDS011;2563;52.242;7.956;2023-09-08T11:03:48;5.53;;;4.30;;
5121;SDS011;2563;52.242;7.956;2023-09-08T11:06:18;7.57;;;5.03;;
5121;SDS011;2563;52.242;7.956;2023-09-08T11:08:47;17.70;;;5.53;;
5121;SDS011;2563;52.242;7.956;2023-09-08T11:11:14;7.28;;;4.95;;
5121;SDS011;2563;52.242;7.956;2023-09-08T11:13:41;7.55;;;6.18;;
5121;SDS011;2563;52.242;7.956;2023-09-08T11:16:06;8.27;;;5.03;;
5121;SDS011;2563;52.242;7.956;2023-09-08T11:18:33;6.97;;;5.15;;
5121;SDS011;2563;52.242;7.956;2023-09-08T11:21:00;6.65;;;5.35;;
5121;SDS011;2563;52.242;7.956;2023-09-08T11:23:29;6.57;;;5.43;;
5121;SDS011;2563;52.242;7.956;2023-09-08T11:25:56;7.25;;;5.13;;
5121;SDS011;2563;52.242;7.956;2023-09-08T11:28:21;7.20;;;5.32;;
5121;SDS011;2563;52.242;7.956;2023-09-08T11:30:48;5.95;;;4.88;;
5121;SDS011;2563;52.242;7.956;2023-09-08T11:33:14;6.50;;;5.15;;
5121;SDS011;2563;52.242;7.956;2023-09-08T11:35:40;6.78;;;4.65;;
5121;SDS011;2563;52.242;7.956;2023-09-08T11:38:07;7.28;;;5.10;;
5121;SDS011;2563;52.242;7.956;2023-09-08T11:40:35;6.35;;;4.88;;
5121;SDS011;2563;52.242;7.956;2023-09-08T11:43:02;12.35;;;5.72;;
5121;SDS011;2563;52.242;7.956;2023-09-08T11:45:28;9.75;;;4.88;;
5121;SDS011;2563;52.242;7.956;2023-09-08T11:47:55;6.25;;;5.13;;
5121;SDS011;2563;52.242;7.956;2023-09-08T11:50:21;6.13;;;5.15;;
5121;SDS011;2563;52.242;7.956;2023-09-08T11:52:48;9.55;;;6.22;;
5121;SDS011;2563;52.242;7.956;2023-09-08T11:55:15;6.65;;;4.75;;
5121;SDS011;2563;52.242;7.956;2023-09-08T11:57:44;10.35;;;5.25;;
5121;SDS011;2563;52.242;7.956;2023-09-08T12:00:12;6.13;;;4.85;;
5121;SDS011;2563;52.242;7.956;2023-09-08T12:02:43;6.18;;;4.50;;
5121;SDS011;2563;52.242;7.956;2023-09-08T12:05:22;8.25;;;5.75;;
5121;SDS011;2563;52.242;7.956;2023-09-08T12:07:52;6.43;;;4.90;;
5121;SDS011;2563;52.242;7.956;2023-09-08T12:10:20;5.43;;;4.68;;
5121;SDS011;2563;52.242;7.956;2023-09-08T12:12:48;6.40;;;4.60;;
5121;SDS011;2563;52.242;7.956;2023-09-08T12:15:30;5.88;;;4.30;;
5121;SDS011;2563;52.242;7.956;2023-09-08T12:17:57;5.97;;;4.85;;
5121;SDS011;2563;52.242;7.956;2023-09-08T12:20:23;8.00;;;4.78;;
5121;SDS011;2563;52.242;7.956;2023-09-08T12:22:49;16.35;;;4.97;;
5121;SDS011;2563;52.242;7.956;2023-09-08T12:25:15;6.63;;;4.97;;
5121;SDS011;2563;52.242;7.956;2023-09-08T12:27:41;7.75;;;4.97;;
5121;SDS011;2563;52.242;7.956;2023-09-08T12:30:07;8.75;;;4.03;;
5121;SDS011;2563;52.242;7.956;2023-09-08T12:32:34;7.43;;;5.72;;
5121;SDS011;2563;52.242;7.956;2023-09-08T12:35:02;6.72;;;4.70;;
5121;SDS011;2563;52.242;7.956;2023-09-08T12:37:29;5.93;;;4.65;;
5121;SDS011;2563;52.242;7.956;2023-09-08T12:39:55;7.05;;;4.43;;
5121;SDS011;2563;52.242;7.956;2023-09-08T12:42:21;5.35;;;4.53;;
5121;SDS011;2563;52.242;7.956;2023-09-08T12:44:50;6.80;;;4.47;;
5121;SDS011;2563;52.242;7.956;2023-09-08T12:47:16;7.40;;;4.93;;
5121;SDS011;2563;52.242;7.956;2023-09-08T12:49:41;5.95;;;4.53;;
5121;SDS011;2563;52.242;7.956;2023-09-08T12:52:07;5.07;;;4.57;;
5121;SDS011;2563;52.242;7.956;2023-09-08T12:54:32;8.73;;;4.45;;
5121;SDS011;2563;52.242;7.956;2023-09-08T12:56:57;6.13;;;4.78;;
5121;SDS011;2563;52.242;7.956;2023-09-08T12:59:23;6.65;;;4.93;;
5121;SDS011;2563;52.242;7.956;2023-09-08T13:01:48;6.93;;;5.07;;
5121;SDS011;2563;52.242;7.956;2023-09-08T13:04:13;12.40;;;4.85;;
5121;SDS011;2563;52.242;7.956;2023-09-08T13:06:39;5.80;;;4.95;;
5121;SDS011;2563;52.242;7.956;2023-09-08T13:09:05;6.55;;;4.18;;
5121;SDS011;2563;52.242;7.956;2023-09-08T13:11:30;7.28;;;4.55;;
5121;SDS011;2563;52.242;7.956;2023-09-08T13:13:56;7.90;;;4.55;;
5121;SDS011;2563;52.242;7.956;2023-09-08T13:16:21;4.93;;;4.00;;
5121;SDS011;2563;52.242;7.956;2023-09-08T13:18:47;6.37;;;4.70;;
5121;SDS011;2563;52.242;7.956;2023-09-08T13:21:12;7.27;;;5.07;;
5121;SDS011;2563;52.242;7.956;2023-09-08T13:23:38;6.27;;;4.37;;
5121;SDS011;2563;52.242;7.956;2023-09-08T13:26:03;6.00;;;4.90;;
5121;SDS011;2563;52.242;7.956;2023-09-08T13:28:28;5.87;;;4.57;;
5121;SDS011;2563;52.242;7.956;2023-09-08T13:30:54;6.60;;;5.00;;
5121;SDS011;2563;52.242;7.956;2023-09-08T13:33:19;6.90;;;5.00;;
5121;SDS011;2563;52.242;7.956;2023-09-08T13:35:45;7.13;;;5.00;;
5121;SDS011;2563;52.242;7.956;2023-09-08T13:38:10;5.43;;;4.50;;
5121;SDS011;2563;52.242;7.956;2023-09-08T13:40:36;7.43;;;4.73;;
5121;SDS011;2563;52.242;7.956;2023-09-08T13:43:01;8.20;;;5.37;;
5121;SDS011;2563;52.242;7.956;2023-09-08T13:45:26;7.07;;;4.50;;
5121;SDS011;2563;52.242;7.956;2023-09-08T13:47:52;6.00;;;4.10;;
5121;SDS011;2563;52.242;7.956;2023-09-08T13:50:17;6.87;;;4.77;;
5121;SDS011;2563;52.242;7.956;2023-09-08T13:52:42;5.20;;;4.70;;
5121;SDS011;2563;52.242;7.956;2023-09-08T13:55:08;5.88;;;4.57;;
5121;SDS011;2563;52.242;7.956;2023-09-08T13:57:35;7.50;;;4.23;;
5121;SDS011;2563;52.242;7.956;2023-09-08T14:00:00;5.22;;;3.80;;
5121;SDS011;2563;52.242;7.956;2023-09-08T14:02:29;6.70;;;5.03;;
5121;SDS011;2563;52.242;7.956;2023-09-08T14:04:54;5.90;;;4.93;;
5121;SDS011;2563;52.242;7.956;2023-09-08T14:07:20;6.50;;;4.33;;
5121;SDS011;2563;52.242;7.956;2023-09-08T14:09:45;7.07;;;5.17;;
5121;SDS011;2563;52.242;7.956;2023-09-08T14:12:10;6.00;;;5.00;;
5121;SDS011;2563;52.242;7.956;2023-09-08T14:14:36;6.30;;;4.70;;
5121;SDS011;2563;52.242;7.956;2023-09-08T14:17:01;6.30;;;4.80;;
5121;SDS011;2563;52.242;7.956;2023-09-08T14:19:26;14.03;;;4.67;;
5121;SDS011;2563;52.242;7.956;2023-09-08T14:21:52;7.67;;;5.10;;
5121;SDS011;2563;52.242;7.956;2023-09-08T14:24:17;5.10;;;4.60;;
5121;SDS011;2563;52.242;7.956;2023-09-08T14:26:42;6.67;;;4.83;;
5121;SDS011;2563;52.242;7.956;2023-09-08T14:29:08;10.30;;;4.97;;
5121;SDS011;2563;52.242;7.956;2023-09-08T14:31:33;8.47;;;5.17;;
5121;SDS011;2563;52.242;7.956;2023-09-08T14:33:59;7.70;;;5.00;;
5121;SDS011;2563;52.242;7.956;2023-09-08T14:36:24;9.53;;;5.60;;
5121;SDS011;2563;52.242;7.956;2023-09-08T14:38:50;7.30;;;5.17;;
5121;SDS011;2563;52.242;7.956;2023-09-08T14:41:15;8.13;;;5.30;;
5121;SDS011;2563;52.242;7.956;2023-09-08T14:43:41;6.13;;;4.77;;
5121;SDS011;2563;52.242;7.956;2023-09-08T14:46:06;8.73;;;5.17;;
5121;SDS011;2563;52.242;7.956;2023-09-08T14:48:32;7.37;;;4.83;;
5121;SDS011;2563;52.242;7.956;2023-09-08T14:50:58;5.50;;;4.80;;
5121;SDS011;2563;52.242;7.956;2023-09-08T14:53:23;8.13;;;5.10;;
5121;SDS011;2563;52.242;7.956;2023-09-08T14:55:49;5.60;;;4.50;;
5121;SDS011;2563;52.242;7.956;2023-09-08T14:58:15;8.73;;;4.57;;
5121;SDS011;2563;52.242;7.956;2023-09-08T15:00:40;6.33;;;5.10;;
5121;SDS011;2563;52.242;7.956;2023-09-08T15:03:06;6.43;;;5.00;;
5121;SDS011;2563;52.242;7.956;2023-09-08T15:05:33;10.60;;;4.77;;